Waimanalo, HI (96795)

9:01 PM HST on March 30, 2015 (GMT -1000)
Keolu Hills | | Change Station
CLOSE
Current Station
Personal Weather Station
Location: Kailua, HI
Elevation: 160 ft
Nearby Weather Stations

Elev 160 ft 21.37 °N, 157.73 °W | Updated 1 minute ago

Overcast
Overcast
72.7 °F
Feels Like 73 °F
N
7.0
Wind Variable Wind from East
Gusts 17.0 mph

Today
High -- | Low -- °F
--% Chance of Precip.
Yesterday
High -- | Low -- °F
Precip. -- in
6:25 AM 6:45 PM
Waxing Gibbous, 85% visible
Pressure 30.06 in
Visibility -9999.0 miles
Clouds Mostly Cloudy 2200 ft
Mostly Cloudy 2900 ft
Overcast 4900 ft
Heat Index 73 °F
Dew Point 66 °F
Humidity 80%
Rainfall in
Snow Depth Not available.
UV 0.0 out of 12
Pollen Not available.
Air Quality Not available.
Flu Activity Not available.
METAR PHNG 310657Z 08009G17KT BKN022 BKN029 OVC049 23/19 A3007 RMK AO2 SLP179 T02330194 $

More Conditions Fewer Conditions

Pressure 30.06 in
Visibility -9999.0 miles
Clouds Mostly Cloudy 2200 ft
Mostly Cloudy 2900 ft
Overcast 4900 ft
Heat Index 73 °F
Dew Point 66 °F
Humidity 80%
Rainfall in
Snow Depth Not available.
UV 0.0 out of 12
Pollen Not available.
Air Quality Not available.
Flu Activity Not available.
METAR PHNG 310657Z 08009G17KT BKN022 BKN029 OVC049 23/19 A3007 RMK AO2 SLP179 T02330194 $

More Conditions Fewer Conditions

10-Day Weather Forecast

Almanac

Astronomy

Mar. 30, 2015 Rise Set
Actual Time
Civil Twilight
Nautical Twilight
Astronomical Twilight
Moon
Length of Visible Light
Length of Day
Tomorrow will be .
, % of the Moon is Illuminated

Today's Extremes

State Highs State Lows

Community

WunderPhotos

Upload Photos

1,809,729 photos uploaded!

WunderBlogs® & News

Nearby

Air Quality

  Air Quality AQ Index Pollutant
Not available.

Snow Depth

Station Depth Elevation

Earthquake Activity

City Distance Mag. Time & Date
Minimum magnitude displayed is 2.5.

Coastal Water Temperatures

Place Temperature

Stations

Nearby Weather Stations

Station Location Temp. Windchill Dew Point Humidity Wind Precip. Elev Updated Type